createdAt,value
2022-11-18T00:01:11.399Z,2.15
2022-11-18T00:03:40.442Z,2.03
2022-11-18T00:06:13.009Z,2.20
2022-11-18T00:08:41.964Z,2.42
2022-11-18T00:11:11.133Z,2.05
2022-11-18T00:13:57.912Z,1.88
2022-11-18T00:16:26.537Z,2.10
2022-11-18T00:18:55.085Z,2.00
2022-11-18T00:21:25.216Z,2.20
2022-11-18T00:23:53.795Z,2.15
2022-11-18T00:26:22.356Z,2.70
2022-11-18T00:28:50.931Z,2.05
2022-11-18T00:31:19.613Z,1.95
2022-11-18T00:33:48.172Z,2.00
2022-11-18T00:36:16.761Z,2.13
2022-11-18T00:38:46.938Z,1.55
2022-11-18T00:41:16.293Z,1.50
2022-11-18T00:43:43.854Z,1.55
2022-11-18T00:46:13.328Z,1.63
2022-11-18T00:48:42.533Z,1.45
2022-11-18T00:51:12.255Z,1.30
2022-11-18T00:53:40.819Z,1.08
2022-11-18T00:56:11.206Z,0.93
2022-11-18T00:58:39.761Z,0.90
2022-11-18T01:01:08.365Z,1.40
2022-11-18T01:03:36.936Z,1.08
2022-11-18T01:06:05.641Z,0.90
2022-11-18T01:08:34.213Z,0.70
2022-11-18T01:11:16.741Z,0.90
2022-11-18T01:13:46.711Z,1.05
2022-11-18T01:16:20.401Z,0.80
2022-11-18T01:18:50.270Z,0.90
2022-11-18T01:21:18.920Z,0.70
2022-11-18T01:23:47.517Z,1.15
2022-11-18T01:26:17.688Z,0.70
2022-11-18T01:28:47.908Z,0.70
2022-11-18T01:31:17.828Z,0.82
2022-11-18T01:33:46.852Z,0.73
2022-11-18T01:36:19.130Z,0.70
2022-11-18T01:38:47.747Z,0.80
2022-11-18T01:41:16.398Z,0.60
2022-11-18T01:43:53.625Z,0.70
2022-11-18T01:46:23.142Z,1.00
2022-11-18T01:48:54.047Z,0.60
2022-11-18T01:51:25.817Z,0.80
2022-11-18T01:53:56.076Z,1.00
2022-11-18T01:56:28.586Z,1.02
2022-11-18T01:58:59.609Z,0.80
2022-11-18T02:01:28.166Z,0.95
2022-11-18T02:03:56.802Z,1.00
2022-11-18T02:06:25.400Z,0.85
2022-11-18T02:08:54.212Z,0.80
2022-11-18T02:11:40.366Z,1.00
2022-11-18T02:14:11.855Z,1.00
2022-11-18T02:16:46.113Z,1.20
2022-11-18T02:19:22.103Z,1.30
2022-11-18T02:21:59.569Z,1.02
2022-11-18T02:24:42.502Z,1.00
2022-11-18T02:27:23.105Z,1.40
2022-11-18T02:29:57.678Z,0.88
2022-11-18T02:32:28.017Z,0.95
2022-11-18T02:35:00.108Z,0.90
2022-11-18T02:37:33.317Z,1.00
2022-11-18T02:40:04.374Z,0.80
2022-11-18T02:42:34.775Z,0.85
2022-11-18T02:45:09.454Z,0.90
2022-11-18T02:47:38.526Z,0.65
2022-11-18T02:50:10.450Z,0.75
2022-11-18T02:52:40.824Z,0.77
2022-11-18T02:55:10.986Z,0.68
2022-11-18T02:57:40.327Z,0.85
2022-11-18T03:00:10.892Z,0.70
2022-11-18T03:02:43.879Z,0.80
2022-11-18T03:05:15.258Z,0.80
2022-11-18T03:07:45.642Z,0.77
2022-11-18T03:10:14.335Z,1.00
2022-11-18T03:12:45.101Z,1.00
2022-11-18T03:15:18.692Z,0.95
2022-11-18T03:17:52.054Z,1.08
2022-11-18T03:20:23.545Z,0.90
2022-11-18T03:22:55.396Z,0.90
2022-11-18T03:25:25.550Z,1.50
2022-11-18T03:27:56.177Z,0.82
2022-11-18T03:30:26.680Z,1.13
2022-11-18T03:32:58.425Z,0.85
2022-11-18T03:35:28.149Z,1.13
2022-11-18T03:38:00.242Z,1.30
2022-11-18T03:40:30.710Z,1.25
2022-11-18T03:43:01.958Z,1.08
2022-11-18T03:45:36.690Z,1.15
2022-11-18T03:48:07.299Z,0.90
2022-11-18T03:50:37.927Z,1.45
2022-11-18T03:53:07.807Z,1.10
2022-11-18T03:55:38.322Z,1.50
2022-11-18T03:58:09.409Z,1.10
2022-11-18T04:00:41.155Z,1.10
2022-11-18T04:03:09.794Z,0.90
2022-11-18T04:05:40.238Z,1.10
2022-11-18T04:08:10.885Z,1.35
2022-11-18T04:10:40.860Z,1.10
2022-11-18T04:13:10.303Z,1.17
2022-11-18T04:15:40.680Z,1.10
2022-11-18T04:18:09.840Z,1.23
2022-11-18T04:20:38.547Z,1.10
2022-11-18T04:23:07.502Z,1.40
2022-11-18T04:25:36.389Z,1.35
2022-11-18T04:28:05.177Z,1.30
2022-11-18T04:30:33.881Z,1.35
2022-11-18T04:33:03.914Z,1.17
2022-11-18T04:35:32.662Z,1.23
2022-11-18T04:38:01.224Z,1.23
2022-11-18T04:40:29.779Z,1.25
2022-11-18T04:42:58.363Z,1.13
2022-11-18T04:45:27.037Z,1.33
2022-11-18T04:48:01.924Z,1.30
2022-11-18T04:50:33.351Z,1.48
2022-11-18T04:53:01.908Z,1.08
2022-11-18T04:55:30.466Z,1.20
2022-11-18T04:57:59.111Z,1.10
2022-11-18T05:00:27.712Z,1.55
2022-11-18T05:02:56.349Z,1.13
2022-11-18T05:05:24.904Z,1.15
2022-11-18T05:07:54.835Z,1.00
2022-11-18T05:10:23.412Z,1.25
2022-11-18T05:12:51.894Z,1.15
2022-11-18T05:15:21.431Z,1.10
2022-11-18T05:17:50.173Z,1.10
2022-11-18T05:20:18.834Z,0.95
2022-11-18T05:22:47.381Z,0.90
2022-11-18T05:25:17.361Z,0.95
2022-11-18T05:27:45.933Z,1.10
2022-11-18T05:30:15.301Z,1.20
2022-11-18T05:32:43.951Z,0.98
2022-11-18T05:35:12.503Z,1.00
2022-11-18T05:37:41.072Z,1.20
2022-11-18T05:40:10.853Z,1.10
2022-11-18T05:42:58.611Z,1.27
2022-11-18T05:45:27.220Z,1.30
2022-11-18T05:48:03.105Z,1.30
2022-11-18T05:50:31.898Z,1.10
2022-11-18T05:53:00.450Z,1.00
2022-11-18T05:55:31.310Z,1.00
2022-11-18T05:58:01.253Z,1.10
2022-11-18T06:00:30.190Z,0.95
2022-11-18T06:02:59.769Z,1.00
2022-11-18T06:05:28.392Z,1.02
2022-11-18T06:07:58.356Z,0.85
2022-11-18T06:10:28.672Z,1.13
2022-11-18T06:13:00.344Z,0.90
2022-11-18T06:15:33.074Z,1.02
2022-11-18T06:18:02.606Z,1.10
2022-11-18T06:20:31.358Z,0.80
2022-11-18T06:23:01.828Z,0.93
2022-11-18T06:25:30.468Z,1.10
2022-11-18T06:28:01.391Z,1.13
2022-11-18T06:30:31.354Z,1.90
2022-11-18T06:32:59.953Z,1.20
2022-11-18T06:35:28.517Z,1.40
2022-11-18T06:37:57.249Z,1.33
2022-11-18T06:40:29.252Z,1.10
2022-11-18T06:43:17.881Z,1.30
2022-11-18T06:46:09.476Z,1.23
2022-11-18T06:48:37.246Z,1.00
2022-11-18T06:51:06.650Z,1.50
2022-11-18T06:53:35.415Z,1.83
2022-11-18T06:56:04.942Z,1.40
2022-11-18T06:58:33.510Z,1.30
2022-11-18T07:01:12.327Z,1.27
2022-11-18T07:03:41.022Z,1.33
2022-11-18T07:06:10.074Z,1.92
2022-11-18T07:08:38.814Z,1.60
2022-11-18T07:11:08.114Z,1.40
2022-11-18T07:13:42.143Z,1.50
2022-11-18T07:16:14.970Z,1.55
2022-11-18T07:18:44.423Z,1.58
2022-11-18T07:21:13.973Z,1.50
2022-11-18T07:23:42.584Z,1.70
2022-11-18T07:26:11.269Z,1.40
2022-11-18T07:28:40.013Z,2.00
2022-11-18T07:31:09.404Z,1.80
2022-11-18T07:33:39.856Z,1.20
2022-11-18T07:36:09.585Z,1.08
2022-11-18T07:38:38.341Z,1.20
2022-11-18T07:41:07.482Z,1.50
2022-11-18T07:43:36.280Z,1.30
2022-11-18T07:46:14.830Z,1.77
2022-11-18T07:48:45.849Z,2.15
2022-11-18T07:51:14.846Z,1.65
2022-11-18T07:53:43.808Z,1.42
2022-11-18T07:56:12.878Z,1.50
2022-11-18T07:58:41.605Z,1.20
2022-11-18T08:01:10.844Z,1.60
2022-11-18T08:03:39.800Z,1.10
2022-11-18T08:06:11.153Z,1.20
2022-11-18T08:08:40.038Z,1.42
2022-11-18T08:11:10.037Z,1.38
2022-11-18T08:13:38.753Z,1.50
2022-11-18T08:16:13.486Z,1.40
2022-11-18T08:18:42.057Z,1.30
2022-11-18T08:21:12.119Z,1.50
2022-11-18T08:23:42.619Z,1.50
2022-11-18T08:26:13.230Z,1.45
2022-11-18T08:28:41.979Z,1.10
2022-11-18T08:31:11.671Z,1.52
2022-11-18T08:33:40.261Z,1.00
2022-11-18T08:36:09.759Z,1.30
2022-11-18T08:38:39.682Z,1.30
2022-11-18T08:41:08.561Z,1.23
2022-11-18T08:43:37.561Z,1.10
2022-11-18T08:46:06.205Z,1.15
2022-11-18T08:48:34.796Z,1.30
2022-11-18T08:51:03.790Z,1.10
2022-11-18T08:53:32.913Z,1.30
2022-11-18T08:56:03.001Z,1.38
2022-11-18T08:58:32.102Z,1.23
2022-11-18T09:01:00.766Z,1.13
2022-11-18T09:03:31.964Z,1.25
2022-11-18T09:06:06.870Z,1.15
2022-11-18T09:08:35.438Z,1.20
2022-11-18T09:11:08.297Z,1.20
2022-11-18T09:14:09.982Z,1.25
2022-11-18T09:16:28.114Z,1.17
2022-11-18T09:18:57.922Z,1.15
2022-11-18T09:21:26.974Z,1.20
2022-11-18T09:23:56.738Z,1.35
2022-11-18T09:26:26.665Z,0.98
2022-11-18T09:28:55.837Z,1.05
2022-11-18T09:31:24.561Z,1.45
2022-11-18T09:33:53.126Z,1.50
2022-11-18T09:36:22.605Z,1.30
2022-11-18T09:38:53.158Z,1.50
2022-11-18T09:41:36.578Z,1.10
2022-11-18T09:44:11.353Z,1.23
2022-11-18T09:46:46.615Z,1.30
2022-11-18T09:49:17.937Z,1.10
2022-11-18T09:51:47.683Z,1.10
2022-11-18T09:54:22.934Z,1.20
2022-11-18T09:56:54.442Z,1.45
2022-11-18T09:59:24.277Z,1.20
2022-11-18T10:01:54.428Z,1.02
2022-11-18T10:04:23.413Z,1.50
2022-11-18T10:06:52.556Z,1.30
2022-11-18T10:09:35.052Z,1.15
2022-11-18T10:12:10.930Z,1.33
2022-11-18T10:14:48.052Z,1.20
2022-11-18T10:17:27.004Z,1.20
2022-11-18T10:19:58.843Z,1.67
2022-11-18T10:22:29.158Z,1.10
2022-11-18T10:24:58.533Z,1.40
2022-11-18T10:27:35.269Z,1.20
2022-11-18T10:30:04.166Z,1.30
2022-11-18T10:32:32.754Z,1.20
2022-11-18T10:35:01.401Z,1.10
2022-11-18T10:38:00.276Z,1.52
2022-11-18T10:40:25.958Z,1.27
2022-11-18T10:42:56.097Z,1.30
2022-11-18T10:45:26.766Z,1.13
2022-11-18T10:48:02.390Z,1.35
2022-11-18T10:50:35.987Z,1.25
2022-11-18T10:53:05.193Z,1.20
2022-11-18T10:55:33.948Z,1.10
2022-11-18T10:58:05.129Z,1.10
2022-11-18T11:00:35.352Z,1.20
2022-11-18T11:03:17.225Z,1.00
2022-11-18T11:05:45.794Z,1.45
2022-11-18T11:08:36.331Z,1.00
2022-11-18T11:11:05.839Z,0.90
2022-11-18T11:13:39.558Z,0.80
2022-11-18T11:16:09.168Z,1.00
2022-11-18T11:18:43.793Z,1.00
2022-11-18T11:21:13.729Z,0.82
2022-11-18T11:23:42.791Z,1.20
2022-11-18T11:29:07.890Z,0.90
2022-11-18T11:31:41.535Z,0.88
2022-11-18T11:34:13.682Z,1.08
2022-11-18T11:36:46.346Z,1.05
2022-11-18T11:39:31.992Z,1.23
2022-11-18T11:42:06.107Z,1.40
2022-11-18T11:44:41.304Z,1.20
2022-11-18T11:47:32.984Z,1.05
2022-11-18T11:50:03.477Z,0.90
2022-11-18T11:52:37.382Z,1.10
2022-11-18T11:55:12.616Z,0.90
2022-11-18T11:57:44.184Z,0.90
2022-11-18T12:00:16.043Z,1.00
2022-11-18T12:02:53.987Z,1.00
2022-11-18T12:05:25.076Z,0.90
2022-11-18T12:07:55.939Z,0.73
2022-11-18T12:10:34.192Z,0.98
2022-11-18T12:13:08.973Z,0.95
2022-11-18T12:15:45.016Z,0.77
2022-11-18T12:18:17.612Z,1.27
2022-11-18T12:20:47.253Z,0.80
2022-11-18T12:23:17.930Z,0.90
2022-11-18T12:25:53.619Z,0.70
2022-11-18T12:28:25.931Z,1.00
2022-11-18T12:31:09.356Z,0.82
2022-11-18T12:33:44.814Z,0.77
2022-11-18T12:36:26.582Z,0.93
2022-11-18T12:38:55.546Z,0.80
2022-11-18T12:42:00.395Z,0.82
2022-11-18T12:44:29.907Z,0.95
2022-11-18T12:46:58.776Z,0.80
2022-11-18T12:49:46.064Z,1.02
2022-11-18T12:52:29.516Z,0.80
2022-11-18T12:55:00.498Z,0.77
2022-11-18T12:57:30.206Z,0.88
2022-11-18T12:59:58.765Z,0.80
2022-11-18T13:02:28.022Z,1.38
2022-11-18T13:05:07.063Z,0.90
2022-11-18T13:07:54.252Z,0.90
2022-11-18T13:10:25.476Z,0.73
2022-11-18T13:12:54.310Z,0.70
2022-11-18T13:15:40.709Z,0.75
2022-11-18T13:18:13.545Z,1.00
2022-11-18T13:20:42.804Z,0.80
2022-11-18T13:23:49.765Z,0.88
2022-11-18T13:26:22.378Z,0.98
2022-11-18T13:29:04.710Z,0.90
2022-11-18T13:31:37.371Z,0.88
2022-11-18T13:34:10.524Z,1.10
2022-11-18T13:36:44.425Z,1.00
2022-11-18T13:39:19.878Z,1.00
2022-11-18T13:41:59.624Z,1.20
2022-11-18T13:44:29.128Z,1.38
2022-11-18T13:47:00.362Z,1.00
2022-11-18T13:49:34.988Z,0.70
2022-11-18T13:52:03.845Z,0.95
2022-11-18T13:54:32.675Z,0.73
2022-11-18T13:57:02.685Z,0.80
2022-11-18T13:59:34.214Z,0.80
2022-11-18T14:02:03.094Z,0.70
2022-11-18T14:04:33.030Z,0.80
2022-11-18T14:07:20.355Z,0.90
2022-11-18T14:09:54.685Z,0.80
2022-11-18T14:12:29.844Z,0.95
2022-11-18T14:15:14.647Z,0.80
2022-11-18T14:17:52.167Z,0.75
2022-11-18T14:20:20.817Z,0.90
2022-11-18T14:22:51.385Z,0.93
2022-11-18T14:25:21.920Z,0.82
2022-11-18T14:27:52.291Z,0.80
2022-11-18T14:30:31.939Z,0.70
2022-11-18T14:33:13.822Z,0.90
2022-11-18T14:35:43.269Z,0.73
2022-11-18T14:38:36.671Z,0.80
2022-11-18T14:41:05.418Z,0.75
2022-11-18T14:43:35.399Z,0.85
2022-11-18T14:46:05.047Z,0.82
2022-11-18T14:48:33.997Z,1.00
2022-11-18T14:51:02.720Z,0.68
2022-11-18T14:53:31.282Z,0.95
2022-11-18T14:56:01.369Z,1.00
2022-11-18T14:58:29.964Z,1.00
2022-11-18T15:00:59.945Z,1.40
2022-11-18T15:03:28.532Z,3.30
2022-11-18T15:05:57.543Z,2.83
2022-11-18T15:08:26.070Z,2.80
2022-11-18T15:10:54.783Z,1.02
2022-11-18T15:13:23.331Z,1.20
2022-11-18T15:15:51.904Z,0.90
2022-11-18T15:18:25.087Z,0.95
2022-11-18T15:20:53.679Z,0.88
2022-11-18T15:23:27.022Z,1.00
2022-11-18T15:25:58.151Z,1.10
2022-11-18T15:28:26.715Z,1.10
2022-11-18T15:30:55.290Z,1.08
2022-11-18T15:33:25.313Z,1.20
2022-11-18T15:35:53.905Z,1.50
2022-11-18T15:38:22.487Z,1.50
2022-11-18T15:40:51.040Z,1.13
2022-11-18T15:43:19.595Z,1.50
2022-11-18T15:45:48.192Z,1.08
2022-11-18T15:48:16.749Z,0.80
2022-11-18T15:50:46.695Z,0.93
2022-11-18T15:53:15.278Z,1.55
2022-11-18T15:55:44.019Z,1.30
2022-11-18T15:58:12.635Z,1.20
2022-11-18T16:00:44.751Z,1.20
2022-11-18T16:03:13.805Z,1.05
2022-11-18T16:05:42.335Z,1.70
2022-11-18T16:08:12.345Z,0.85
2022-11-18T16:10:58.376Z,1.42
2022-11-18T16:13:26.934Z,1.10
2022-11-18T16:15:55.551Z,1.35
2022-11-18T16:18:24.114Z,0.80
2022-11-18T16:20:58.877Z,1.20
2022-11-18T16:23:29.179Z,0.90
2022-11-18T16:25:57.829Z,1.25
2022-11-18T16:28:26.371Z,1.10
2022-11-18T16:31:12.790Z,1.35
2022-11-18T16:33:41.364Z,1.15
2022-11-18T16:36:10.050Z,1.30
2022-11-18T16:38:39.969Z,1.30
2022-11-18T16:41:29.504Z,1.20
2022-11-18T16:43:58.747Z,1.00
2022-11-18T16:46:27.381Z,1.00
2022-11-18T16:48:57.303Z,1.23
2022-11-18T16:51:26.480Z,1.00
2022-11-18T16:53:57.389Z,1.90
2022-11-18T16:56:27.182Z,1.30
2022-11-18T16:58:58.745Z,1.30
2022-11-18T17:01:29.705Z,1.20
2022-11-18T17:04:00.431Z,1.30
2022-11-18T17:06:29.531Z,1.40
2022-11-18T17:08:59.735Z,1.10
2022-11-18T17:11:28.586Z,1.45
2022-11-18T17:13:58.424Z,1.35
2022-11-18T17:16:27.916Z,0.88
2022-11-18T17:18:57.036Z,1.10
2022-11-18T17:21:26.040Z,1.05
2022-11-18T17:23:54.604Z,1.10
2022-11-18T17:26:25.117Z,1.60
2022-11-18T17:28:54.164Z,1.35
2022-11-18T17:31:23.641Z,1.15
2022-11-18T17:33:53.380Z,1.17
2022-11-18T17:36:23.115Z,1.17
2022-11-18T17:38:52.252Z,0.90
2022-11-18T17:41:41.312Z,0.80
2022-11-18T17:44:12.491Z,1.15
2022-11-18T17:46:41.500Z,1.30
2022-11-18T17:49:13.410Z,1.20
2022-11-18T17:51:42.320Z,1.42
2022-11-18T17:54:11.090Z,1.00
2022-11-18T17:56:39.663Z,0.98
2022-11-18T17:59:08.566Z,1.10
2022-11-18T18:01:38.587Z,1.30
2022-11-18T18:04:07.204Z,1.08
2022-11-18T18:06:35.891Z,1.02
2022-11-18T18:09:04.658Z,1.20
2022-11-18T18:11:33.228Z,1.20
2022-11-18T18:14:13.066Z,1.25
2022-11-18T18:16:44.243Z,1.48
2022-11-18T18:19:13.851Z,1.20
2022-11-18T18:21:42.387Z,1.10
2022-11-18T18:24:11.422Z,0.95
2022-11-18T18:26:40.207Z,1.20
2022-11-18T18:29:08.760Z,1.20
2022-11-18T18:31:37.901Z,1.20
2022-11-18T18:34:07.965Z,1.15
2022-11-18T18:36:36.735Z,1.10
2022-11-18T18:39:05.663Z,1.08
2022-11-18T18:41:34.192Z,1.02
2022-11-18T18:44:03.124Z,1.15
2022-11-18T18:46:32.361Z,2.50
2022-11-18T18:49:02.928Z,1.35
2022-11-18T18:51:33.484Z,1.08
2022-11-18T18:54:02.129Z,1.10
2022-11-18T18:56:30.699Z,1.00
2022-11-18T18:58:59.610Z,1.20
2022-11-18T19:01:28.816Z,1.10
2022-11-18T19:03:58.531Z,1.55
2022-11-18T19:06:51.547Z,1.90
2022-11-18T19:09:18.411Z,2.40
2022-11-18T19:12:13.647Z,1.88
2022-11-18T19:14:42.347Z,1.42
2022-11-18T19:17:12.325Z,1.52
2022-11-18T19:19:59.230Z,2.78
2022-11-18T19:22:28.195Z,1.90
2022-11-18T19:24:58.565Z,1.20
2022-11-18T19:27:27.673Z,1.33
2022-11-18T19:29:56.293Z,1.60
2022-11-18T19:32:24.966Z,1.70
2022-11-18T19:34:53.611Z,1.50
2022-11-18T19:37:22.188Z,1.25
2022-11-18T19:39:50.730Z,1.48
2022-11-18T19:42:20.859Z,1.60
2022-11-18T19:44:49.419Z,2.03
2022-11-18T19:47:17.986Z,1.55
2022-11-18T19:49:46.559Z,1.40
2022-11-18T19:52:15.127Z,1.90
2022-11-18T19:54:43.685Z,1.40
2022-11-18T19:57:12.273Z,1.20
2022-11-18T19:59:42.240Z,1.60
2022-11-18T20:02:11.647Z,1.27
2022-11-18T20:04:40.240Z,0.90
2022-11-18T20:07:08.867Z,1.00
2022-11-18T20:09:37.464Z,1.30
2022-11-18T20:12:06.912Z,1.45
2022-11-18T20:14:35.642Z,1.60
2022-11-18T20:17:05.783Z,1.20
2022-11-18T20:19:34.411Z,1.00
2022-11-18T20:22:03.055Z,1.40
2022-11-18T20:24:31.654Z,1.33
2022-11-18T20:27:00.199Z,0.90
2022-11-18T20:29:28.759Z,1.10
2022-11-18T20:31:57.456Z,1.27
2022-11-18T20:34:27.502Z,1.27
2022-11-18T20:36:56.062Z,1.10
2022-11-18T20:39:24.668Z,1.23
2022-11-18T20:42:07.088Z,1.10
2022-11-18T20:44:35.639Z,0.90
2022-11-18T20:47:04.193Z,1.00
2022-11-18T20:49:34.114Z,1.00
2022-11-18T20:52:02.954Z,1.10
2022-11-18T20:54:31.529Z,1.30
2022-11-18T20:57:00.092Z,1.00
2022-11-18T20:59:28.668Z,1.00
2022-11-18T21:01:57.433Z,0.90
2022-11-18T21:04:25.967Z,0.98
2022-11-18T21:07:00.856Z,0.90
2022-11-18T21:09:31.942Z,0.80
2022-11-18T21:12:00.602Z,0.90
2022-11-18T21:14:28.164Z,0.90
2022-11-18T21:17:00.456Z,1.00
2022-11-18T21:19:29.380Z,1.00
2022-11-18T21:21:58.359Z,0.88
2022-11-18T21:24:29.515Z,1.00
2022-11-18T21:26:58.527Z,0.90
2022-11-18T21:29:28.219Z,0.93
2022-11-18T21:31:57.852Z,0.98
2022-11-18T21:34:26.438Z,0.80
2022-11-18T21:36:55.537Z,0.90
2022-11-18T21:39:26.063Z,0.80
2022-11-18T21:41:57.253Z,0.77
2022-11-18T21:44:28.065Z,0.88
2022-11-18T21:46:57.634Z,0.77
2022-11-18T21:49:26.257Z,1.10
2022-11-18T21:51:54.931Z,0.73
2022-11-18T21:54:24.442Z,1.00
2022-11-18T21:56:56.132Z,0.90
2022-11-18T21:59:25.459Z,0.90
2022-11-18T22:01:55.218Z,0.95
2022-11-18T22:04:41.939Z,0.90
2022-11-18T22:07:11.356Z,0.80
2022-11-18T22:09:41.697Z,0.90
2022-11-18T22:12:12.607Z,0.70
2022-11-18T22:14:42.570Z,0.88
2022-11-18T22:17:12.018Z,0.70
2022-11-18T22:19:41.006Z,0.85
2022-11-18T22:22:10.193Z,0.73
2022-11-18T22:24:38.875Z,0.93
2022-11-18T22:27:11.352Z,0.80
2022-11-18T22:29:41.687Z,1.00
2022-11-18T22:32:10.278Z,1.00
2022-11-18T22:34:38.851Z,0.85
2022-11-18T22:37:07.537Z,0.82
2022-11-18T22:39:36.162Z,0.80
2022-11-18T22:42:22.195Z,0.80
2022-11-18T22:44:52.198Z,0.88
2022-11-18T22:47:20.844Z,0.80
2022-11-18T22:49:53.520Z,0.65
2022-11-18T22:52:24.746Z,0.80
2022-11-18T22:54:53.279Z,0.75
2022-11-18T22:57:22.038Z,0.70
2022-11-18T22:59:52.339Z,0.82
2022-11-18T23:02:20.895Z,0.75
2022-11-18T23:04:49.446Z,0.85
2022-11-18T23:07:18.048Z,0.80
2022-11-18T23:09:46.658Z,0.90
2022-11-18T23:12:32.878Z,0.88
2022-11-18T23:15:02.843Z,0.80
2022-11-18T23:17:31.438Z,0.70
2022-11-18T23:20:00.004Z,0.70
2022-11-18T23:22:28.574Z,0.80
2022-11-18T23:24:57.334Z,0.90
2022-11-18T23:27:25.894Z,0.90
2022-11-18T23:29:54.443Z,0.68
2022-11-18T23:32:24.365Z,1.13
2022-11-18T23:34:52.955Z,1.35
2022-11-18T23:37:21.538Z,0.73
2022-11-18T23:39:50.155Z,0.70
2022-11-18T23:42:18.927Z,0.77
2022-11-18T23:44:49.168Z,0.80
2022-11-18T23:47:17.809Z,0.80
2022-11-18T23:49:47.726Z,0.80
2022-11-18T23:52:18.126Z,0.65
2022-11-18T23:54:46.687Z,0.98
2022-11-18T23:57:15.219Z,0.60
2022-11-18T23:59:43.805Z,0.70
